Coniston, Canada
Current Conditions -  °F | °C
As of 9:00 AM on Wednesday 22 Oct 2014 (Local Time) from CYSB Reporting Station
Few Clouds Few Clouds  
Wind Chill: 26°   Ceiling: Unl
Heat Index: 34°   Visibility: 20mi
Dew Point: 30°   Wind: 9mph
Humidity: 87%   Direction: 20°NNE
Pressure: 30.38"   Gusts: NA
Location:  46.49°N, 80.85°W
Report Text: CYSB 221300Z 02008KT 20SM FEW010 01/M01 A3038 RMK SF1 SF TR SLP306
Loading
Personal Weather Stations






























Interactive Weather Map New forecast layout! Learn more

10-Day Weather Forecast

Advertisements
Track Severe Weather on mobile